Time;durP1;ratioP1;P1;durP2;ratioP2;P2;SDS_P1;SDS_P2;PMS_P1;PMS_P2;Temp;Humidity;BMP_temperature;BMP_pressure;BME280_temperature;BME280_humidity;BME280_pressure;Samples;Min_cycle;Max_cycle;Signal;HPM_P1;HPM_P2
2023/11/24 09:17:31;;;;;;;;;;;;;;;8.61;67.17;99278.56;1087791;54;840;-79
2023/11/24 09:18:32;;;;;;;;;;;;;;;8.64;67.19;99285.41;1087716;54;1158;-81
2023/11/24 09:19:40;;;;;;;;;;;;;;;8.48;67.57;99289.59;1087729;54;1092;-81
2023/11/24 09:20:46;;;;;;;;;;;;;;;8.55;67.52;99285.31;1086843;47;995;-80
2023/11/24 09:21:53;;;;;;;;;;;;;;;8.56;67.37;99281.66;1086600;46;1155;-80
2023/11/24 09:22:54;;;;;;;;;;;;;;;8.55;67.45;99287.97;1086635;47;1398;-80
2023/11/24 09:24:06;;;;;;;;;;;;;;;8.55;67.29;99280.00;1086569;54;1209;-80
2023/11/24 09:25:08;;;;;;;;;;;;;;;8.41;68.12;99277.78;1086013;47;1091;-79
2023/11/24 09:26:14;;;;;;;;;;;;;;;8.63;67.63;99276.59;1086268;53;1088;-79
2023/11/24 09:27:16;;;;;;;;;;;;;;;8.62;67.60;99274.91;1085814;54;1015;-79
2023/11/24 09:28:23;;;;;;;;;;;;;;;8.53;68.16;99278.47;1085967;54;1164;-79
2023/11/24 09:29:27;;;;;;;;;;;;;;;8.46;68.51;99280.84;1087349;54;1063;-79
2023/11/24 09:30:31;;;;;;;;;;;;;;;8.49;68.43;99279.75;1087981;47;1853;-79
2023/11/24 09:31:36;;;;;;;;;;;;;;;8.41;68.53;99272.47;1086365;47;1412;-80
2023/11/24 09:32:43;;;;;;;;;;;;;;;8.33;68.28;99278.56;1087388;54;1306;-79
2023/11/24 09:33:49;;;;;;;;;;;;;;;8.47;67.68;99268.38;1087935;47;1103;-79
2023/11/24 09:34:51;;;;;;;;;;;;;;;8.47;67.72;99268.38;1087792;47;1059;-80
2023/11/24 09:35:55;;;;;;;;;;;;;;;8.46;67.43;99262.22;1087604;47;1063;-77
2023/11/24 09:37:09;;;;;;;;;;;;;;;8.50;66.99;99266.25;1087652;47;939;-80
2023/11/24 09:38:13;;;;;;;;;;;;;;;8.53;66.90;99263.31;1086048;54;1350;-79
2023/11/24 09:39:26;;;;;;;;;;;;;;;8.58;66.40;99263.72;1084919;47;1375;-80
2023/11/24 09:40:37;;;;;;;;;;;;;;;8.67;65.95;99266.47;1085233;47;1193;-80
2023/11/24 09:41:52;;;;;;;;;;;;;;;8.64;65.59;99266.75;1085445;47;1126;-80
2023/11/24 09:43:00;;;;;;;;;;;;;;;8.60;65.85;99270.72;1084964;47;1394;-81
2023/11/24 09:44:02;;;;;;;;;;;;;;;8.51;66.08;99272.44;1085754;46;1058;-81
2023/11/24 09:45:14;;;;;;;;;;;;;;;8.49;66.67;99269.94;1084978;46;1065;-77
2023/11/24 09:46:15;;;;;;;;;;;;;;;8.46;67.17;99256.88;1085694;54;1175;-79
2023/11/24 09:47:20;;;;;;;;;;;;;;;8.63;67.05;99270.41;1086453;54;1440;-80
2023/11/24 09:48:27;;;;;;;;;;;;;;;8.61;66.99;99265.22;1086112;54;1640;-78
2023/11/24 09:49:40;;;;;;;;;;;;;;;8.46;68.08;99280.84;1085530;54;1165;-78
2023/11/24 09:51:10;;;;;;;;;;;;;;;8.58;67.96;99269.03;1086016;47;1894;-82
2023/11/24 09:52:20;;;;;;;;;;;;;;;8.45;67.32;99260.53;1086672;46;1366;-79
2023/11/24 09:53:21;;;;;;;;;;;;;;;8.33;67.74;99265.25;1086632;47;1026;-78
2023/11/24 09:54:25;;;;;;;;;;;;;;;8.24;67.69;99272.28;1087017;47;1162;-79
2023/11/24 09:55:26;;;;;;;;;;;;;;;7.80;68.73;99277.41;1088047;47;936;-79
2023/11/24 09:56:29;;;;;;;;;;;;;;;7.82;68.76;99280.75;1086832;47;1134;-79
2023/11/24 09:57:30;;;;;;;;;;;;;;;7.75;68.95;99276.97;1085415;54;1175;-78
2023/11/24 09:58:34;;;;;;;;;;;;;;;7.51;69.68;99265.03;1086305;47;992;-79
2023/11/24 09:59:34;;;;;;;;;;;;;;;7.61;69.22;99265.84;1087291;47;1489;-79
2023/11/24 10:00:37;;;;;;;;;;;;;;;7.29;69.71;99274.19;1086637;54;1063;-77
2023/11/24 10:01:38;;;;;;;;;;;;;;;6.99;71.06;99262.72;1085905;54;1091;-79
2023/11/24 10:02:42;;;;;;;;;;;;;;;6.74;71.84;99261.47;1085489;46;1429;-76
2023/11/24 10:03:46;;;;;;;;;;;;;;;6.55;72.91;99269.31;1085048;54;1613;-77
2023/11/24 10:04:49;;;;;;;;;;;;;;;6.36;74.00;99266.63;1085733;46;948;-76
2023/11/24 10:05:51;;;;;;;;;;;;;;;6.51;73.42;99251.97;1084928;51;1553;-77
2023/11/24 10:06:55;;;;;;;;;;;;;;;6.52;73.69;99255.44;1084996;54;1058;-76
2023/11/24 10:07:57;;;;;;;;;;;;;;;6.47;74.21;99237.25;1085234;54;1169;-78
2023/11/24 10:09:00;;;;;;;;;;;;;;;6.20;75.07;99233.47;1085188;54;1207;-76
2023/11/24 10:10:01;;;;;;;;;;;;;;;6.25;74.86;99241.00;1085381;54;1126;-81
2023/11/24 10:11:08;;;;;;;;;;;;;;;6.36;74.36;99242.72;1085086;47;1850;-76
2023/11/24 10:12:12;;;;;;;;;;;;;;;5.90;75.53;99227.19;1085281;47;1370;-76
2023/11/24 10:13:14;;;;;;;;;;;;;;;6.24;74.55;99232.22;1085277;47;1075;-78
2023/11/24 10:14:17;;;;;;;;;;;;;;;6.34;73.85;99224.25;1085752;47;1198;-77
2023/11/24 10:15:18;;;;;;;;;;;;;;;6.31;73.58;99219.25;1084730;54;1310;-77
2023/11/24 10:16:22;;;;;;;;;;;;;;;6.40;73.34;99222.88;1084274;47;1227;-76
2023/11/24 10:17:23;;;;;;;;;;;;;;;6.01;74.44;99226.31;1084708;47;1144;-78
2023/11/24 10:18:28;;;;;;;;;;;;;;;5.87;75.23;99218.66;1084622;47;1126;-78
2023/11/24 10:19:32;;;;;;;;;;;;;;;5.96;75.09;99220.50;1084369;54;1074;-79
2023/11/24 10:20:38;;;;;;;;;;;;;;;5.80;76.43;99222.84;1084648;54;1117;-78
2023/11/24 10:21:42;;;;;;;;;;;;;;;5.87;76.65;99226.63;1085057;54;1130;-77
2023/11/24 10:22:43;;;;;;;;;;;;;;;5.61;77.78;99224.44;1084720;47;1276;-78
2023/11/24 10:23:52;;;;;;;;;;;;;;;5.47;79.40;99215.88;1084651;47;1141;-77
2023/11/24 10:24:58;;;;;;;;;;;;;;;5.61;79.14;99211.19;1085553;47;1087;-78
2023/11/24 10:26:04;;;;;;;;;;;;;;;5.55;79.54;99211.72;1087830;54;1526;-76
2023/11/24 10:27:17;;;;;;;;;;;;;;;5.69;79.35;99211.34;1087872;47;1091;-76
2023/11/24 10:28:21;;;;;;;;;;;;;;;5.73;79.09;99199.53;1087734;54;1086;-77
2023/11/24 10:29:30;;;;;;;;;;;;;;;5.66;79.52;99198.38;1087337;47;1035;-77
2023/11/24 10:30:34;;;;;;;;;;;;;;;5.70;79.46;99199.78;1087094;47;1523;-77
2023/11/24 10:31:36;;;;;;;;;;;;;;;5.81;79.39;99195.34;1087170;54;1897;-78
2023/11/24 10:32:39;;;;;;;;;;;;;;;5.83;79.29;99183.63;1087641;47;1370;-79
2023/11/24 10:33:43;;;;;;;;;;;;;;;5.76;79.58;99185.97;1087591;54;1031;-76
2023/11/24 10:34:51;;;;;;;;;;;;;;;5.67;80.06;99185.94;1087550;54;1324;-76
2023/11/24 10:35:53;;;;;;;;;;;;;;;5.67;79.83;99178.81;1087916;46;1023;-79
2023/11/24 10:36:53;;;;;;;;;;;;;;;5.77;79.48;99185.00;1087716;54;1067;-78
2023/11/24 10:38:00;;;;;;;;;;;;;;;5.70;79.72;99172.44;1087584;54;1074;-78
2023/11/24 10:39:06;;;;;;;;;;;;;;;5.70;79.71;99170.59;1087157;54;1003;-78
2023/11/24 10:40:13;;;;;;;;;;;;;;;5.63;79.97;99166.81;1087679;54;1058;-78
2023/11/24 10:41:18;;;;;;;;;;;;;;;5.65;80.24;99164.88;1088063;54;968;-76
2023/11/24 10:42:24;;;;;;;;;;;;;;;5.73;80.04;99162.38;1088006;54;1271;-77
2023/11/24 10:43:28;;;;;;;;;;;;;;;5.78;79.86;99159.34;1088039;46;962;-75
2023/11/24 10:44:33;;;;;;;;;;;;;;;5.76;80.22;99156.78;1087680;47;960;-76
2023/11/24 10:45:35;;;;;;;;;;;;;;;5.78;79.98;99160.16;1087668;47;1098;-77
2023/11/24 10:46:45;;;;;;;;;;;;;;;5.89;79.44;99148.63;1087641;47;1056;-79
2023/11/24 10:47:55;;;;;;;;;;;;;;;6.09;78.67;99154.81;1088124;54;1070;-77
2023/11/24 10:49:07;;;;;;;;;;;;;;;6.14;78.49;99153.56;1088241;54;1074;-76
2023/11/24 10:50:12;;;;;;;;;;;;;;;6.30;78.05;99147.69;1087697;54;1022;-77
2023/11/24 10:51:17;;;;;;;;;;;;;;;6.43;77.75;99153.56;1087732;47;1872;-77
2023/11/24 10:52:22;;;;;;;;;;;;;;;6.53;77.16;99151.75;1087268;47;1361;-77
2023/11/24 10:53:25;;;;;;;;;;;;;;;6.54;77.37;99150.78;1087372;47;1146;-76
2023/11/24 10:54:39;;;;;;;;;;;;;;;6.57;77.05;99149.66;1087859;54;1095;-79
2023/11/24 10:55:48;;;;;;;;;;;;;;;6.68;76.95;99138.03;1087975;46;1055;-78
2023/11/24 10:56:54;;;;;;;;;;;;;;;6.59;77.09;99138.88;1087913;47;1163;-78
2023/11/24 10:57:55;;;;;;;;;;;;;;;6.66;77.14;99140.00;1087926;54;991;-80
2023/11/24 10:58:58;;;;;;;;;;;;;;;6.87;77.07;99139.81;1087963;47;978;-79
2023/11/24 10:59:59;;;;;;;;;;;;;;;6.90;76.91;99134.22;1088011;54;1014;-79
2023/11/24 11:01:06;;;;;;;;;;;;;;;7.11;76.36;99136.69;1087858;47;1173;-78
2023/11/24 11:02:08;;;;;;;;;;;;;;;6.93;76.71;99139.25;1087926;46;1350;-78
2023/11/24 11:03:15;;;;;;;;;;;;;;;7.06;76.51;99132.78;1087932;47;1018;-80
2023/11/24 11:04:24;;;;;;;;;;;;;;;6.90;76.73;99123.59;1087946;47;1019;-80
2023/11/24 11:05:43;;;;;;;;;;;;;;;6.85;77.13;99118.69;1087991;54;980;-78
2023/11/24 11:06:47;;;;;;;;;;;;;;;7.11;76.46;99102.13;1087989;47;1035;-80
2023/11/24 11:07:53;;;;;;;;;;;;;;;7.26;76.06;99105.16;1087868;54;1179;-79
2023/11/24 11:09:19;;;;;;;;;;;;;;;7.28;76.33;99108.50;1086634;47;1122;-78
2023/11/24 11:10:25;;;;;;;;;;;;;;;7.46;75.90;99107.72;1087090;54;1078;-78
2023/11/24 11:11:39;;;;;;;;;;;;;;;7.56;75.96;99112.97;1087035;54;1847;-78
2023/11/24 11:12:48;;;;;;;;;;;;;;;7.53;76.14;99105.28;1086877;47;1326;-79
2023/11/24 11:13:52;;;;;;;;;;;;;;;7.62;75.80;99107.91;1087004;47;1199;-78
2023/11/24 11:14:53;;;;;;;;;;;;;;;7.60;76.05;99104.56;1087575;47;1146;-78
2023/11/24 11:15:59;;;;;;;;;;;;;;;7.59;76.42;99102.88;1087327;54;1102;-77
2023/11/24 11:17:00;;;;;;;;;;;;;;;7.72;75.88;99093.72;1086385;47;1426;-79
2023/11/24 11:18:14;;;;;;;;;;;;;;;7.79;75.65;99084.97;1086976;47;1095;-79
2023/11/24 11:19:30;;;;;;;;;;;;;;;7.60;76.44;99093.91;1087039;47;1351;-78
2023/11/24 11:20:40;;;;;;;;;;;;;;;7.75;76.30;99082.75;1086853;47;1164;-78
2023/11/24 11:21:42;;;;;;;;;;;;;;;7.87;75.52;99070.91;1086890;47;1059;-79
2023/11/24 11:26:17;;;;;;;;;;;;;;;7.79;76.31;99061.03;1087956;54;713;-80
2023/11/24 11:27:26;;;;;;;;;;;;;;;7.70;76.78;99061.09;1087650;54;1011;-78
2023/11/24 11:28:51;;;;;;;;;;;;;;;7.74;76.83;99060.66;1087448;47;1507;-77
2023/11/24 11:29:53;;;;;;;;;;;;;;;7.73;76.93;99056.31;1087991;54;1134;-77
2023/11/24 11:30:55;;;;;;;;;;;;;;;7.72;77.07;99051.97;1086825;47;1082;-80
2023/11/24 11:32:01;;;;;;;;;;;;;;;7.71;77.02;99054.78;1087386;47;1843;-80
2023/11/24 11:33:02;;;;;;;;;;;;;;;7.73;77.35;99056.31;1086805;54;1389;-78
2023/11/24 11:34:09;;;;;;;;;;;;;;;7.70;77.55;99045.13;1087794;54;1170;-78
2023/11/24 11:35:12;;;;;;;;;;;;;;;7.70;77.87;99050.47;1087927;54;1213;-80
2023/11/24 11:36:19;;;;;;;;;;;;;;;7.67;78.21;99040.97;1087841;47;987;-80
2023/11/24 11:37:22;;;;;;;;;;;;;;;7.83;77.69;99048.28;1087970;47;1074;-79
2023/11/24 11:38:35;;;;;;;;;;;;;;;7.79;77.52;99038.91;1087284;46;1185;-79
2023/11/24 11:39:53;;;;;;;;;;;;;;;7.87;77.49;99041.66;1087955;54;1070;-79
2023/11/24 11:40:57;;;;;;;;;;;;;;;7.86;77.56;99031.16;1087858;54;1482;-80
2023/11/24 11:42:01;;;;;;;;;;;;;;;7.80;77.53;99038.75;1087570;47;1043;-80
2023/11/24 11:43:08;;;;;;;;;;;;;;;7.74;77.72;99033.22;1087264;47;1364;-79
2023/11/24 11:44:22;;;;;;;;;;;;;;;7.93;77.24;99035.75;1088039;54;1074;-80
2023/11/24 11:45:29;;;;;;;;;;;;;;;7.71;77.01;99033.50;1087653;47;1090;-79
2023/11/24 11:46:49;;;;;;;;;;;;;;;7.61;77.02;99031.75;1087862;54;1030;-78
2023/11/24 11:47:59;;;;;;;;;;;;;;;7.53;76.93;99030.81;1087041;54;1484;-77
2023/11/24 11:49:08;;;;;;;;;;;;;;;7.60;76.79;99024.75;1088111;54;1102;-79
2023/11/24 11:50:17;;;;;;;;;;;;;;;7.71;76.27;99022.88;1088124;54;1102;-78
2023/11/24 11:51:23;;;;;;;;;;;;;;;7.85;75.97;99006.38;1087450;46;1931;-78
2023/11/24 11:52:28;;;;;;;;;;;;;;;7.81;75.89;99015.66;1087278;54;1262;-78
2023/11/24 11:53:29;;;;;;;;;;;;;;;7.70;76.41;99011.38;1086808;54;1166;-77
2023/11/24 11:54:31;;;;;;;;;;;;;;;7.57;76.57;99009.09;1086631;54;1170;-78
2023/11/24 11:55:35;;;;;;;;;;;;;;;7.56;76.58;99012.75;1086807;54;1166;-78
2023/11/24 11:56:36;;;;;;;;;;;;;;;7.74;76.34;99010.09;1085916;54;1170;-77
2023/11/24 11:57:40;;;;;;;;;;;;;;;7.58;76.17;99008.13;1085616;54;1158;-77
2023/11/24 11:58:41;;;;;;;;;;;;;;;7.65;76.17;99011.84;1086595;47;1494;-78
2023/11/24 11:59:41;;;;;;;;;;;;;;;7.62;76.20;99009.50;1086154;54;1189;-77
2023/11/24 12:00:46;;;;;;;;;;;;;;;7.79;75.73;99014.97;1086755;54;1107;-77
2023/11/24 12:01:47;;;;;;;;;;;;;;;7.69;75.65;99004.41;1086993;47;1087;-77
2023/11/24 12:02:48;;;;;;;;;;;;;;;7.61;75.42;99015.81;1087000;47;1314;-77
2023/11/24 12:03:52;;;;;;;;;;;;;;;7.77;74.62;99012.47;1087235;54;1403;-77
2023/11/24 12:04:53;;;;;;;;;;;;;;;7.58;74.44;99009.94;1086954;54;1108;-78
2023/11/24 12:05:57;;;;;;;;;;;;;;;7.65;74.09;99016.34;1086471;47;993;-76
2023/11/24 12:07:01;;;;;;;;;;;;;;;7.51;73.18;99008.88;1087484;47;1080;-77
2023/11/24 12:08:05;;;;;;;;;;;;;;;7.62;72.96;99008.63;1087260;54;1486;-77
2023/11/24 12:09:08;;;;;;;;;;;;;;;7.74;72.66;99015.41;1087060;54;1145;-78
2023/11/24 12:10:12;;;;;;;;;;;;;;;7.48;72.90;99015.31;1087210;47;1125;-77
2023/11/24 12:11:14;;;;;;;;;;;;;;;7.46;72.44;99025.28;1086752;54;1063;-76
2023/11/24 12:12:14;;;;;;;;;;;;;;;7.34;72.04;99030.81;1087278;46;1897;-78
2023/11/24 12:13:18;;;;;;;;;;;;;;;7.30;72.12;99018.78;1086780;47;1122;-77
2023/11/24 12:14:20;;;;;;;;;;;;;;;7.36;72.09;99022.69;1087502;46;1151;-78
2023/11/24 12:15:23;;;;;;;;;;;;;;;7.47;71.75;99018.97;1086863;47;1154;-77
2023/11/24 12:16:28;;;;;;;;;;;;;;;7.54;71.64;99012.06;1086980;54;970;-77
2023/11/24 12:17:31;;;;;;;;;;;;;;;7.23;72.23;99020.38;1087608;46;976;-77
2023/11/24 12:18:32;;;;;;;;;;;;;;;7.40;71.84;99017.91;1087269;47;977;-77
2023/11/24 12:19:33;;;;;;;;;;;;;;;7.24;72.46;99011.41;1086879;47;1356;-76
2023/11/24 12:20:37;;;;;;;;;;;;;;;7.20;72.38;99009.22;1087556;54;1118;-77
2023/11/24 12:21:41;;;;;;;;;;;;;;;7.10;72.73;99015.41;1087784;54;1086;-76
2023/11/24 12:22:47;;;;;;;;;;;;;;;6.94;73.12;99007.25;1087600;54;1311;-77
2023/11/24 12:23:47;;;;;;;;;;;;;;;6.81;73.77;99007.56;1087917;54;1090;-77
2023/11/24 12:24:51;;;;;;;;;;;;;;;6.93;73.69;99009.03;1087809;47;1047;-78
2023/11/24 12:25:54;;;;;;;;;;;;;;;6.92;73.50;99004.72;1087080;54;1210;-78
2023/11/24 12:26:56;;;;;;;;;;;;;;;7.14;72.75;99013.28;1087410;54;1148;-78
2023/11/24 12:27:59;;;;;;;;;;;;;;;7.18;72.62;99004.88;1087467;46;1063;-77
2023/11/24 12:29:01;;;;;;;;;;;;;;;7.17;72.92;99003.19;1087914;54;1061;-78
2023/11/24 12:30:03;;;;;;;;;;;;;;;7.25;72.66;99010.44;1087636;47;1040;-77
2023/11/24 12:31:07;;;;;;;;;;;;;;;7.17;72.72;98997.88;1087826;54;859;-78
2023/11/24 12:32:10;;;;;;;;;;;;;;;7.17;72.78;98997.88;1087590;47;1864;-77
2023/11/24 12:33:18;;;;;;;;;;;;;;;7.08;73.16;99003.25;1087828;47;1004;-78
2023/11/24 12:34:20;;;;;;;;;;;;;;;7.21;72.61;98992.28;1087909;54;1079;-78
2023/11/24 12:35:27;;;;;;;;;;;;;;;7.20;72.90;98995.91;1087526;47;1048;-76
2023/11/24 12:36:28;;;;;;;;;;;;;;;7.27;72.52;98981.03;1087512;46;1028;-77
2023/11/24 12:37:31;;;;;;;;;;;;;;;7.33;72.34;98981.28;1087672;47;1075;-78
2023/11/24 12:38:34;;;;;;;;;;;;;;;7.28;72.83;98982.72;1087861;54;1190;-77
2023/11/24 12:39:39;;;;;;;;;;;;;;;7.36;72.42;98990.78;1087371;54;1134;-77
2023/11/24 12:40:42;;;;;;;;;;;;;;;7.38;72.70;98985.28;1087580;54;1066;-77
2023/11/24 12:41:44;;;;;;;;;;;;;;;7.20;73.38;98982.63;1087965;54;971;-78
2023/11/24 12:42:47;;;;;;;;;;;;;;;7.42;72.70;98978.69;1087680;54;1315;-77
2023/11/24 12:43:49;;;;;;;;;;;;;;;7.55;72.57;98971.19;1087588;54;1182;-77
2023/11/24 12:44:52;;;;;;;;;;;;;;;7.56;72.52;98974.69;1087512;47;1057;-78
2023/11/24 12:45:55;;;;;;;;;;;;;;;7.62;72.31;98972.25;1087247;54;1080;-77
2023/11/24 12:47:12;;;;;;;;;;;;;;;7.64;72.45;98974.75;1087417;54;1346;-77
2023/11/24 12:48:22;;;;;;;;;;;;;;;7.66;71.99;98970.13;1087457;54;1087;-76
2023/11/24 12:49:26;;;;;;;;;;;;;;;7.31;73.38;98985.91;1087886;46;1094;-79
2023/11/24 12:50:29;;;;;;;;;;;;;;;7.21;73.97;98990.44;1087708;47;988;-78
2023/11/24 12:51:31;;;;;;;;;;;;;;;7.22;74.34;98989.47;1087379;54;852;-78
2023/11/24 12:52:34;;;;;;;;;;;;;;;7.38;73.87;98987.94;1087632;54;1361;-77
2023/11/24 12:53:38;;;;;;;;;;;;;;;7.24;74.40;98979.50;1087622;54;1107;-76
2023/11/24 12:54:41;;;;;;;;;;;;;;;7.10;75.15;98975.53;1087777;54;1095;-77
2023/11/24 12:55:42;;;;;;;;;;;;;;;7.32;74.47;98971.63;1087277;54;1115;-76
2023/11/24 12:56:46;;;;;;;;;;;;;;;7.47;74.21;98971.09;1086894;47;1011;-78
2023/11/24 12:57:47;;;;;;;;;;;;;;;7.58;74.05;98960.22;1087024;47;1141;-76
2023/11/24 12:58:53;;;;;;;;;;;;;;;7.61;73.80;98959.94;1086857;47;1154;-77
2023/11/24 12:59:56;;;;;;;;;;;;;;;7.49;74.06;98958.50;1087323;54;1044;-77
2023/11/24 13:00:59;;;;;;;;;;;;;;;7.43;74.28;98956.44;1087289;47;1158;-77
2023/11/24 13:02:00;;;;;;;;;;;;;;;7.28;74.12;98945.50;1087511;54;1131;-77
2023/11/24 13:03:05;;;;;;;;;;;;;;;7.30;74.07;98948.84;1087444;54;1333;-76
2023/11/24 13:04:08;;;;;;;;;;;;;;;7.31;74.36;98951.34;1087364;47;1095;-78
2023/11/24 13:05:12;;;;;;;;;;;;;;;7.44;73.88;98950.13;1087231;54;1086;-77
2023/11/24 13:06:13;;;;;;;;;;;;;;;7.63;73.52;98936.69;1087084;46;1086;-76
2023/11/24 13:07:16;;;;;;;;;;;;;;;7.65;73.26;98931.22;1087483;54;1176;-78
2023/11/24 13:08:17;;;;;;;;;;;;;;;7.54;73.38;98932.28;1087562;47;976;-76
2023/11/24 13:09:22;;;;;;;;;;;;;;;7.67;72.86;98931.03;1086997;47;1015;-76
2023/11/24 13:10:30;;;;;;;;;;;;;;;7.61;72.97;98936.00;1087461;47;934;-77
2023/11/24 13:11:32;;;;;;;;;;;;;;;7.69;72.71;98935.25;1087392;54;1142;-77
2023/11/24 13:12:35;;;;;;;;;;;;;;;7.86;72.35;98933.53;1087117;47;1850;-76
2023/11/24 13:13:36;;;;;;;;;;;;;;;7.64;72.01;98934.84;1087179;54;1195;-77
2023/11/24 13:14:39;;;;;;;;;;;;;;;7.63;71.63;98928.72;1088024;54;1095;-77
2023/11/24 13:15:41;;;;;;;;;;;;;;;7.81;71.14;98931.34;1087960;47;912;-77
2023/11/24 13:16:45;;;;;;;;;;;;;;;7.85;71.17;98939.03;1087408;47;1497;-78
2023/11/24 13:17:46;;;;;;;;;;;;;;;8.11;70.67;98925.75;1087519;54;1078;-77
2023/11/24 13:18:49;;;;;;;;;;;;;;;8.23;70.27;98935.13;1087425;54;1107;-77
2023/11/24 13:19:50;;;;;;;;;;;;;;;8.28;69.78;98924.84;1086939;46;964;-78
2023/11/24 13:20:53;;;;;;;;;;;;;;;8.33;69.62;98926.19;1087366;54;1144;-77
2023/11/24 13:21:56;;;;;;;;;;;;;;;8.25;69.38;98924.34;1086704;54;1123;-78
2023/11/24 13:23:00;;;;;;;;;;;;;;;8.11;69.42;98918.56;1086673;47;1403;-77
2023/11/24 13:24:01;;;;;;;;;;;;;;;8.05;69.55;98918.38;1087654;47;1131;-78
2023/11/24 13:25:08;;;;;;;;;;;;;;;8.26;68.97;98916.19;1087123;47;1405;-78
2023/11/24 13:26:10;;;;;;;;;;;;;;;8.16;69.22;98925.28;1086510;46;1541;-79
2023/11/24 13:27:13;;;;;;;;;;;;;;;8.06;69.06;98926.22;1086971;47;1067;-78
2023/11/24 13:28:14;;;;;;;;;;;;;;;8.24;69.08;98915.50;1086851;47;1067;-77
2023/11/24 13:29:15;;;;;;;;;;;;;;;8.25;69.21;98917.16;1086895;47;1103;-78
2023/11/24 13:30:21;;;;;;;;;;;;;;;8.08;69.21;98916.22;1087355;54;1046;-77
2023/11/24 13:31:28;;;;;;;;;;;;;;;8.14;69.29;98914.75;1087555;54;1150;-78
2023/11/24 13:32:32;;;;;;;;;;;;;;;8.17;69.36;98909.13;1086945;46;1880;-77
2023/11/24 13:33:32;;;;;;;;;;;;;;;8.19;69.22;98907.16;1087370;54;992;-77
2023/11/24 13:34:35;;;;;;;;;;;;;;;8.14;69.30;98906.78;1086884;47;1017;-77
2023/11/24 13:35:38;;;;;;;;;;;;;;;8.27;69.00;98912.53;1086995;47;964;-78
2023/11/24 13:36:45;;;;;;;;;;;;;;;8.30;69.01;98903.38;1087410;54;1110;-77
2023/11/24 13:37:47;;;;;;;;;;;;;;;8.39;68.66;98912.25;1086629;47;1047;-78
2023/11/24 13:38:51;;;;;;;;;;;;;;;8.25;68.72;98911.03;1087635;54;947;-77
2023/11/24 13:39:51;;;;;;;;;;;;;;;8.39;68.28;98906.94;1087365;46;1113;-78
2023/11/24 13:40:58;;;;;;;;;;;;;;;8.21;68.38;98905.19;1087208;47;1055;-78
2023/11/24 13:41:59;;;;;;;;;;;;;;;8.07;68.53;98903.06;1087336;47;1122;-77
2023/11/24 13:43:02;;;;;;;;;;;;;;;8.06;68.60;98902.25;1087345;47;1394;-78
2023/11/24 13:44:04;;;;;;;;;;;;;;;8.09;68.33;98901.09;1087460;47;1062;-78
2023/11/24 13:45:11;;;;;;;;;;;;;;;8.10;68.22;98897.44;1087539;47;1060;-78
2023/11/24 13:46:13;;;;;;;;;;;;;;;7.91;68.38;98907.31;1087607;54;1082;-78
2023/11/24 13:47:17;;;;;;;;;;;;;;;7.90;68.32;98910.97;1087311;46;1142;-78
2023/11/24 13:48:23;;;;;;;;;;;;;;;7.59;68.96;98907.88;1087624;54;1009;-77
2023/11/24 13:49:26;;;;;;;;;;;;;;;7.73;68.62;98909.16;1087432;54;1009;-78
2023/11/24 13:50:28;;;;;;;;;;;;;;;7.83;68.43;98912.56;1086722;47;1130;-78
2023/11/24 13:51:33;;;;;;;;;;;;;;;7.76;68.61;98907.03;1087317;54;1063;-77
2023/11/24 13:52:33;;;;;;;;;;;;;;;7.68;68.67;98908.78;1086991;46;1845;-78
2023/11/24 13:53:37;;;;;;;;;;;;;;;7.66;68.85;98900.97;1087565;47;1067;-78
2023/11/24 13:54:37;;;;;;;;;;;;;;;7.63;68.89;98902.13;1087201;54;1143;-78
2023/11/24 13:55:43;;;;;;;;;;;;;;;7.60;69.07;98905.06;1087175;47;996;-78
2023/11/24 13:56:48;;;;;;;;;;;;;;;7.78;69.01;98902.41;1087025;54;1473;-76
2023/11/24 13:57:53;;;;;;;;;;;;;;;7.60;68.93;98905.06;1086846;47;1062;-78
2023/11/24 13:58:54;;;;;;;;;;;;;;;7.73;69.06;98920.63;1086930;47;1020;-77
2023/11/24 13:59:57;;;;;;;;;;;;;;;7.77;68.83;98934.47;1087041;54;1063;-77
2023/11/24 14:00:59;;;;;;;;;;;;;;;7.92;68.86;98946.25;1087111;47;991;-77
2023/11/24 14:02:03;;;;;;;;;;;;;;;7.93;68.97;98945.25;1087096;54;1173;-77
2023/11/24 14:03:05;;;;;;;;;;;;;;;7.68;70.20;98941.56;1086936;54;1496;-78
2023/11/24 14:04:10;;;;;;;;;;;;;;;7.44;70.58;98960.78;1087225;54;1174;-78
2023/11/24 14:05:13;;;;;;;;;;;;;;;7.21;70.96;98953.22;1085647;47;987;-76
2023/11/24 14:06:18;;;;;;;;;;;;;;;7.18;70.89;98951.72;1083916;47;1511;-77
2023/11/24 14:07:19;;;;;;;;;;;;;;;6.77;71.07;98958.38;1084406;54;1163;-76
2023/11/24 14:08:23;;;;;;;;;;;;;;;6.76;71.56;98960.16;1083823;54;1276;-77
2023/11/24 14:09:31;;;;;;;;;;;;;;;6.78;71.27;98957.38;1084126;54;1024;-78
2023/11/24 14:10:34;;;;;;;;;;;;;;;6.74;71.33;98953.34;1083976;47;1029;-77
2023/11/24 14:11:36;;;;;;;;;;;;;;;6.65;71.54;98963.88;1084147;47;1142;-77
2023/11/24 14:12:39;;;;;;;;;;;;;;;6.69;71.61;98969.72;1084050;54;1900;-77
2023/11/24 14:13:44;;;;;;;;;;;;;;;6.49;72.39;98968.97;1084105;47;1154;-76
2023/11/24 14:14:45;;;;;;;;;;;;;;;6.42;72.53;98965.22;1084356;47;1519;-76
2023/11/24 14:15:49;;;;;;;;;;;;;;;5.99;73.40;98980.66;1084993;54;1010;-77
2023/11/24 14:16:50;;;;;;;;;;;;;;;5.75;74.05;98961.53;1084681;54;1109;-77
2023/11/24 14:17:53;;;;;;;;;;;;;;;5.86;73.93;98970.28;1085147;47;1129;-76
2023/11/24 14:18:54;;;;;;;;;;;;;;;6.08;72.81;98971.88;1085064;47;1163;-77
2023/11/24 14:19:54;;;;;;;;;;;;;;;5.97;73.64;98966.69;1085337;54;1092;-76
